createdAt,value
2019-06-20T00:00:10.057Z,54.16
2019-06-20T00:00:49.420Z,54.63
2019-06-20T00:01:26.122Z,55.03
2019-06-20T00:02:02.194Z,55.25
2019-06-20T00:02:38.840Z,55.63
2019-06-20T00:03:15.749Z,56.28
2019-06-20T00:03:52.093Z,56.74
2019-06-20T00:04:29.275Z,57.38
2019-06-20T00:05:07.752Z,58.22
2019-06-20T00:05:43.982Z,58.98
2019-06-20T00:06:20.934Z,59.40
2019-06-20T00:06:57.666Z,60.26
2019-06-20T00:07:34.148Z,60.66
2019-06-20T00:08:11.032Z,61.48
2019-06-20T00:08:48.090Z,60.68
2019-06-20T00:09:24.170Z,60.38
2019-06-20T00:10:01.030Z,62.60
2019-06-20T00:10:37.645Z,64.47
2019-06-20T00:11:13.710Z,65.46
2019-06-20T00:11:50.651Z,65.94
2019-06-20T00:12:27.488Z,67.39
2019-06-20T00:13:03.668Z,68.05
2019-06-20T00:13:41.053Z,68.07
2019-06-20T00:14:18.745Z,68.69
2019-06-20T00:14:54.913Z,69.92
2019-06-20T00:15:31.861Z,68.99
2019-06-20T00:16:08.485Z,69.55
2019-06-20T00:16:44.636Z,69.14
2019-06-20T00:17:21.222Z,69.99
2019-06-20T00:17:59.326Z,70.45
2019-06-20T00:18:35.362Z,70.60
2019-06-20T00:19:12.075Z,69.70
2019-06-20T00:19:49.123Z,71.32
2019-06-20T00:20:25.485Z,71.29
2019-06-20T00:21:02.152Z,70.94
2019-06-20T00:21:38.791Z,71.50
2019-06-20T00:22:14.837Z,71.79
2019-06-20T00:22:51.945Z,71.48
2019-06-20T00:23:29.023Z,71.65
2019-06-20T00:24:05.063Z,71.54
2019-06-20T00:24:41.738Z,73.10
2019-06-20T00:25:18.722Z,73.18
2019-06-20T00:25:54.883Z,73.13
2019-06-20T00:26:32.368Z,73.21
2019-06-20T00:27:09.018Z,74.13
2019-06-20T00:27:45.165Z,74.35
2019-06-20T00:28:21.819Z,74.65
2019-06-20T00:28:58.808Z,74.18
2019-06-20T00:29:35.202Z,74.42
2019-06-20T00:30:12.335Z,74.27
2019-06-20T00:30:49.068Z,73.66
2019-06-20T00:31:25.207Z,73.46
2019-06-20T00:32:01.883Z,73.56
2019-06-20T00:32:38.527Z,74.01
2019-06-20T00:33:14.576Z,74.42
2019-06-20T00:33:51.547Z,73.60
2019-06-20T00:34:28.197Z,73.93
2019-06-20T00:35:04.355Z,73.94
2019-06-20T00:35:41.033Z,74.09
2019-06-20T00:36:18.013Z,73.34
2019-06-20T00:36:54.073Z,73.98
2019-06-20T00:37:31.132Z,74.25
2019-06-20T00:38:07.767Z,75.39
2019-06-20T00:38:43.800Z,74.82
2019-06-20T00:39:20.433Z,74.47
2019-06-20T00:39:57.501Z,74.64
2019-06-20T00:40:33.603Z,75.28
2019-06-20T00:41:10.249Z,75.06
2019-06-20T00:41:46.879Z,74.49
2019-06-20T00:42:23.338Z,75.01
2019-06-20T00:43:13.432Z,74.89
2019-06-20T00:43:38.350Z,74.99
2019-06-20T00:44:14.515Z,75.09
2019-06-20T00:44:51.126Z,74.42
2019-06-20T00:45:28.246Z,74.55
2019-06-20T00:46:04.289Z,74.26
2019-06-20T00:46:41.299Z,74.22
2019-06-20T00:47:17.940Z,75.07
2019-06-20T00:47:54.369Z,73.63
2019-06-20T00:48:31.032Z,74.06
2019-06-20T00:49:07.694Z,73.46
2019-06-20T00:49:43.826Z,73.51
2019-06-20T00:50:20.458Z,73.17
2019-06-20T00:50:57.255Z,73.10
2019-06-20T00:51:33.332Z,73.70
2019-06-20T00:52:10.290Z,73.19
2019-06-20T00:52:46.972Z,73.67
2019-06-20T00:53:23.050Z,73.55
2019-06-20T00:53:59.736Z,73.97
2019-06-20T00:54:36.379Z,73.80
2019-06-20T00:55:12.923Z,74.23
2019-06-20T00:55:49.815Z,74.23
2019-06-20T00:56:26.700Z,73.84
2019-06-20T00:57:03.108Z,74.48
2019-06-20T00:57:39.734Z,75.78
2019-06-20T00:58:16.372Z,76.80
2019-06-20T00:58:52.800Z,76.61
2019-06-20T00:59:29.728Z,76.01
2019-06-20T01:00:07.497Z,75.82
2019-06-20T01:00:43.640Z,76.17
2019-06-20T01:01:20.282Z,75.57
2019-06-20T01:01:57.330Z,75.37
2019-06-20T01:02:33.768Z,75.28
2019-06-20T01:03:10.403Z,75.71
2019-06-20T01:03:47.022Z,75.69
2019-06-20T01:04:23.066Z,74.84
2019-06-20T01:04:59.794Z,74.10
2019-06-20T01:05:36.798Z,74.42
2019-06-20T01:06:13.110Z,74.12
2019-06-20T01:06:50.115Z,74.33
2019-06-20T01:07:27.575Z,75.41
2019-06-20T01:08:03.673Z,75.61
2019-06-20T01:08:40.312Z,75.73
2019-06-20T01:09:17.361Z,74.83
2019-06-20T01:09:54.165Z,76.62
2019-06-20T01:10:30.872Z,73.54
2019-06-20T01:11:07.484Z,72.29
2019-06-20T01:11:43.799Z,71.83
2019-06-20T01:12:20.771Z,71.58
2019-06-20T01:12:57.769Z,72.40
2019-06-20T01:13:34.592Z,73.39
2019-06-20T01:14:11.360Z,74.11
2019-06-20T01:14:48.461Z,72.74
2019-06-20T01:15:24.746Z,72.35
2019-06-20T01:16:01.532Z,72.32
2019-06-20T01:16:38.852Z,72.30
2019-06-20T01:17:14.995Z,71.26
2019-06-20T01:17:52.000Z,71.78
2019-06-20T01:18:28.689Z,72.21
2019-06-20T01:19:05.144Z,72.62
2019-06-20T01:19:42.050Z,73.73
2019-06-20T01:20:19.788Z,73.48
2019-06-20T01:20:57.014Z,73.79
2019-06-20T01:21:34.107Z,74.72
2019-06-20T01:22:10.732Z,74.96
2019-06-20T01:22:46.784Z,74.53
2019-06-20T01:23:23.605Z,74.06
2019-06-20T01:24:00.264Z,73.37
2019-06-20T01:24:36.602Z,73.80
2019-06-20T01:25:13.814Z,74.89
2019-06-20T01:25:50.940Z,75.06
2019-06-20T01:26:28.079Z,75.77
2019-06-20T01:27:05.298Z,76.00
2019-06-20T01:27:42.382Z,75.83
2019-06-20T01:28:18.564Z,77.11
2019-06-20T01:28:55.218Z,77.22
2019-06-20T01:29:32.276Z,76.80
2019-06-20T01:30:09.357Z,76.91
2019-06-20T01:30:46.295Z,77.18
2019-06-20T01:31:23.280Z,77.99
2019-06-20T01:31:59.702Z,78.56
2019-06-20T01:32:36.326Z,78.39
2019-06-20T01:33:13.451Z,77.79
2019-06-20T01:33:49.887Z,78.39
2019-06-20T01:34:26.817Z,78.43
2019-06-20T01:35:03.474Z,78.89
2019-06-20T01:35:39.525Z,78.30
2019-06-20T01:36:16.179Z,78.40
2019-06-20T01:36:53.225Z,78.80
2019-06-20T01:37:29.736Z,78.04
2019-06-20T01:38:06.897Z,78.26
2019-06-20T01:38:43.845Z,78.50
2019-06-20T01:39:19.914Z,79.35
2019-06-20T01:39:56.885Z,78.79
2019-06-20T01:40:33.826Z,78.96
2019-06-20T01:41:09.885Z,78.55
2019-06-20T01:41:47.223Z,78.38
2019-06-20T01:42:24.004Z,78.79
2019-06-20T01:43:00.696Z,78.43
2019-06-20T01:43:50.067Z,78.50
2019-06-20T01:44:15.952Z,79.20
2019-06-20T01:44:51.980Z,78.59
2019-06-20T01:45:28.663Z,78.14
2019-06-20T01:46:05.294Z,78.08
2019-06-20T01:46:41.335Z,78.78
2019-06-20T01:47:17.982Z,78.73
2019-06-20T01:47:54.637Z,77.60
2019-06-20T01:48:31.250Z,77.64
2019-06-20T01:49:07.984Z,77.33
2019-06-20T01:49:44.616Z,77.64
2019-06-20T01:50:21.368Z,77.28
2019-06-20T01:50:58.738Z,77.30
2019-06-20T01:51:35.356Z,77.85
2019-06-20T01:52:11.756Z,77.66
2019-06-20T01:52:49.404Z,76.47
2019-06-20T01:53:26.148Z,76.60
2019-06-20T01:54:02.235Z,76.44
2019-06-20T01:54:38.869Z,75.88
2019-06-20T01:55:15.955Z,76.10
2019-06-20T01:55:53.089Z,76.47
2019-06-20T01:56:29.867Z,76.40
2019-06-20T01:57:06.482Z,77.01
2019-06-20T01:57:42.512Z,77.24
2019-06-20T01:58:19.585Z,77.25
2019-06-20T01:58:56.298Z,77.29
2019-06-20T01:59:32.731Z,77.64
2019-06-20T02:00:09.962Z,77.42
2019-06-20T02:00:50.838Z,76.72
2019-06-20T02:01:27.081Z,77.29
2019-06-20T02:02:03.942Z,76.92
2019-06-20T02:02:40.586Z,76.18
2019-06-20T02:03:16.998Z,76.08
2019-06-20T02:03:53.990Z,76.22
2019-06-20T02:04:31.047Z,76.28
2019-06-20T02:05:07.817Z,76.49
2019-06-20T02:05:45.063Z,76.74
2019-06-20T02:06:21.672Z,76.24
2019-06-20T02:06:57.786Z,76.07
2019-06-20T02:07:34.420Z,76.44
2019-06-20T02:08:11.142Z,77.31
2019-06-20T02:08:47.476Z,76.56
2019-06-20T02:09:24.257Z,76.35
2019-06-20T02:10:00.914Z,76.70
2019-06-20T02:10:37.324Z,76.49
2019-06-20T02:11:14.714Z,77.26
2019-06-20T02:11:51.998Z,76.15
2019-06-20T02:12:28.125Z,76.16
2019-06-20T02:13:05.471Z,76.34
2019-06-20T02:13:42.119Z,76.88
2019-06-20T02:14:18.565Z,76.60
2019-06-20T02:14:55.215Z,77.19
2019-06-20T02:15:31.849Z,76.73
2019-06-20T02:16:07.946Z,76.34
2019-06-20T02:16:44.515Z,76.14
2019-06-20T02:17:21.146Z,76.23
2019-06-20T02:17:57.317Z,76.24
2019-06-20T02:18:34.370Z,76.42
2019-06-20T02:19:10.988Z,76.68
2019-06-20T02:19:47.384Z,76.22
2019-06-20T02:20:32.279Z,76.44
2019-06-20T02:21:09.609Z,76.46
2019-06-20T02:21:45.637Z,76.63
2019-06-20T02:22:22.318Z,76.47
2019-06-20T02:22:58.990Z,76.73
2019-06-20T02:23:35.020Z,76.83
2019-06-20T02:24:11.638Z,77.48
2019-06-20T02:24:48.267Z,77.81
2019-06-20T02:25:24.667Z,76.88
2019-06-20T02:26:01.725Z,77.17
2019-06-20T02:26:38.370Z,76.50
2019-06-20T02:27:14.546Z,76.31
2019-06-20T02:27:51.174Z,76.51
2019-06-20T02:28:28.234Z,76.94
2019-06-20T02:29:04.496Z,76.77
2019-06-20T02:29:41.132Z,76.21
2019-06-20T02:30:17.972Z,76.36
2019-06-20T02:30:54.409Z,76.25
2019-06-20T02:31:31.067Z,75.75
2019-06-20T02:32:08.225Z,75.54
2019-06-20T02:32:44.370Z,75.68
2019-06-20T02:33:21.478Z,75.27
2019-06-20T02:33:58.241Z,75.36
2019-06-20T02:34:34.623Z,75.27
2019-06-20T02:35:11.662Z,75.33
2019-06-20T02:35:48.300Z,75.59
2019-06-20T02:36:24.365Z,76.16
2019-06-20T02:37:01.009Z,75.97
2019-06-20T02:37:38.011Z,75.77
2019-06-20T02:38:14.036Z,75.89
2019-06-20T02:38:50.665Z,75.95
2019-06-20T02:39:28.072Z,75.82
2019-06-20T02:40:04.825Z,75.34
2019-06-20T02:40:41.896Z,75.19
2019-06-20T02:41:18.540Z,75.43
2019-06-20T02:41:54.922Z,75.42
2019-06-20T02:42:31.963Z,75.55
2019-06-20T02:43:08.705Z,75.85
2019-06-20T02:43:45.509Z,75.58
2019-06-20T02:44:29.933Z,75.43
2019-06-20T02:45:00.846Z,75.33
2019-06-20T02:45:38.139Z,75.77
2019-06-20T02:46:15.063Z,75.77
2019-06-20T02:46:51.745Z,75.74
2019-06-20T02:47:28.579Z,75.64
2019-06-20T02:48:05.951Z,75.79
2019-06-20T02:48:42.612Z,75.83
2019-06-20T02:49:18.994Z,76.28
2019-06-20T02:49:55.638Z,76.23
2019-06-20T02:50:32.604Z,75.76
2019-06-20T02:51:08.957Z,75.68
2019-06-20T02:51:46.067Z,76.15
2019-06-20T02:52:23.216Z,75.87
2019-06-20T02:52:59.422Z,75.47
2019-06-20T02:53:37.033Z,75.96
2019-06-20T02:54:13.642Z,75.56
2019-06-20T02:54:49.723Z,75.37
2019-06-20T02:55:26.404Z,75.55
2019-06-20T02:56:03.051Z,76.01
2019-06-20T02:56:39.938Z,76.04
2019-06-20T02:57:16.912Z,76.18
2019-06-20T02:57:54.219Z,76.02
2019-06-20T02:58:31.030Z,76.00
2019-06-20T02:59:08.073Z,76.59
2019-06-20T02:59:44.792Z,77.16
2019-06-20T03:00:34.160Z,76.98
2019-06-20T03:01:11.115Z,76.82
2019-06-20T03:01:48.086Z,77.08
2019-06-20T03:02:24.159Z,77.09
2019-06-20T03:03:00.821Z,76.87
2019-06-20T03:03:37.467Z,76.58
2019-06-20T03:04:13.854Z,76.18
2019-06-20T03:04:50.484Z,76.21
2019-06-20T03:05:27.140Z,76.56
2019-06-20T03:06:03.174Z,76.69
2019-06-20T03:06:40.581Z,77.00
2019-06-20T03:07:17.356Z,76.81
2019-06-20T03:07:53.568Z,77.10
2019-06-20T03:08:30.421Z,77.19
2019-06-20T03:09:09.001Z,77.11
2019-06-20T03:09:45.134Z,77.38
2019-06-20T03:10:22.195Z,77.37
2019-06-20T03:10:59.171Z,76.99
2019-06-20T03:11:35.654Z,77.18
2019-06-20T03:12:12.584Z,77.11
2019-06-20T03:12:49.691Z,76.86
2019-06-20T03:13:26.079Z,76.84
2019-06-20T03:14:02.812Z,77.01
2019-06-20T03:14:45.411Z,76.91
2019-06-20T03:15:17.280Z,76.77
2019-06-20T03:15:53.912Z,76.70
2019-06-20T03:16:31.095Z,76.48
2019-06-20T03:17:07.119Z,76.50
2019-06-20T03:17:43.763Z,76.58
2019-06-20T03:18:20.483Z,76.19
2019-06-20T03:18:56.638Z,76.21
2019-06-20T03:19:33.350Z,76.52
2019-06-20T03:20:11.682Z,76.78
2019-06-20T03:20:47.735Z,76.55
2019-06-20T03:21:24.497Z,76.00
2019-06-20T03:22:01.954Z,75.86
2019-06-20T03:22:37.999Z,75.94
2019-06-20T03:23:14.715Z,76.60
2019-06-20T03:23:51.626Z,76.85
2019-06-20T03:24:27.759Z,76.89
2019-06-20T03:25:04.543Z,76.97
2019-06-20T03:25:41.310Z,76.96
2019-06-20T03:26:17.345Z,76.82
2019-06-20T03:26:54.762Z,77.02
2019-06-20T03:27:31.437Z,77.22
2019-06-20T03:28:07.473Z,77.17
2019-06-20T03:28:44.947Z,77.19
2019-06-20T03:29:22.062Z,76.72
2019-06-20T03:29:58.518Z,76.49
2019-06-20T03:30:35.540Z,76.73
2019-06-20T03:31:12.176Z,76.55
2019-06-20T03:31:48.227Z,76.37
2019-06-20T03:32:24.883Z,75.90
2019-06-20T03:33:01.912Z,75.98
2019-06-20T03:33:37.922Z,76.50
2019-06-20T03:34:14.613Z,76.39
2019-06-20T03:34:51.993Z,76.25
2019-06-20T03:35:28.065Z,76.45
2019-06-20T03:36:04.712Z,76.50
2019-06-20T03:36:41.410Z,76.47
2019-06-20T03:37:17.463Z,76.61
2019-06-20T03:37:54.106Z,76.74
2019-06-20T03:38:30.779Z,77.08
2019-06-20T03:39:08.020Z,76.27
2019-06-20T03:39:44.665Z,76.34
2019-06-20T03:40:21.424Z,76.53
2019-06-20T03:40:57.520Z,76.88
2019-06-20T03:41:34.180Z,76.36
2019-06-20T03:42:11.141Z,76.58
2019-06-20T03:42:47.175Z,76.10
2019-06-20T03:43:23.876Z,75.84
2019-06-20T03:44:01.194Z,76.46
2019-06-20T03:44:37.290Z,76.84
2019-06-20T03:45:14.307Z,76.92
2019-06-20T03:45:50.940Z,76.69
2019-06-20T03:46:27.341Z,76.37
2019-06-20T03:47:04.318Z,76.61
2019-06-20T03:47:41.392Z,76.04
2019-06-20T03:48:18.180Z,76.25
2019-06-20T03:48:55.320Z,75.96
2019-06-20T03:49:32.462Z,76.19
2019-06-20T03:50:09.040Z,76.10
2019-06-20T03:50:45.678Z,75.72
2019-06-20T03:51:22.600Z,75.46
2019-06-20T03:51:58.773Z,75.56
2019-06-20T03:52:36.221Z,75.33
2019-06-20T03:53:12.850Z,75.19
2019-06-20T03:53:48.901Z,75.43
2019-06-20T03:54:25.895Z,75.37
2019-06-20T03:55:02.655Z,74.99
2019-06-20T03:55:38.716Z,74.65
2019-06-20T03:56:16.740Z,74.73
2019-06-20T03:56:53.411Z,74.70
2019-06-20T03:57:29.491Z,74.93
2019-06-20T03:58:06.615Z,74.87
2019-06-20T03:58:43.226Z,75.07
2019-06-20T03:59:19.409Z,75.07
2019-06-20T03:59:56.925Z,75.30
2019-06-20T04:00:35.514Z,74.75
2019-06-20T04:01:11.841Z,74.75
2019-06-20T04:01:49.307Z,74.27
2019-06-20T04:02:26.652Z,74.69
2019-06-20T04:03:03.478Z,74.90
2019-06-20T04:03:40.507Z,74.52
2019-06-20T04:04:17.201Z,74.50
2019-06-20T04:04:54.262Z,74.19
2019-06-20T04:05:30.886Z,74.29
2019-06-20T04:06:07.798Z,74.15
2019-06-20T04:06:44.255Z,74.10
2019-06-20T04:07:20.897Z,73.96
2019-06-20T04:07:58.039Z,73.79
2019-06-20T04:08:34.164Z,73.54
2019-06-20T04:09:11.140Z,73.70
2019-06-20T04:09:48.089Z,73.75
2019-06-20T04:10:24.159Z,73.54
2019-06-20T04:11:00.900Z,73.62
2019-06-20T04:11:37.566Z,73.43
2019-06-20T04:12:13.629Z,73.78
2019-06-20T04:12:50.610Z,73.98
2019-06-20T04:13:27.792Z,73.90
2019-06-20T04:14:03.875Z,73.93
2019-06-20T04:14:40.771Z,74.35
2019-06-20T04:15:19.684Z,74.44
2019-06-20T04:15:55.868Z,74.19
2019-06-20T04:16:32.529Z,73.71
2019-06-20T04:17:09.151Z,73.61
2019-06-20T04:17:45.934Z,73.83
2019-06-20T04:18:22.537Z,73.52
2019-06-20T04:18:59.198Z,73.78
2019-06-20T04:19:35.296Z,73.90
2019-06-20T04:20:12.028Z,74.12
2019-06-20T04:20:48.903Z,74.22
2019-06-20T04:21:25.724Z,74.49
2019-06-20T04:22:02.377Z,74.51
2019-06-20T04:22:39.023Z,74.40
2019-06-20T04:23:15.070Z,74.77
2019-06-20T04:23:51.705Z,74.82
2019-06-20T04:24:28.401Z,74.87
2019-06-20T04:25:04.504Z,75.03
2019-06-20T04:25:41.137Z,75.23
2019-06-20T04:26:17.767Z,75.02
2019-06-20T04:26:54.187Z,75.12
2019-06-20T04:27:30.930Z,75.10
2019-06-20T04:28:07.871Z,74.86
2019-06-20T04:28:43.901Z,74.53
2019-06-20T04:29:20.957Z,75.00
2019-06-20T04:29:57.980Z,75.03
2019-06-20T04:30:34.351Z,74.54
2019-06-20T04:31:11.292Z,74.77
2019-06-20T04:31:48.558Z,74.54
2019-06-20T04:32:24.725Z,74.40
2019-06-20T04:33:01.376Z,74.06
2019-06-20T04:33:38.001Z,74.46
2019-06-20T04:34:14.389Z,74.07
2019-06-20T04:34:51.362Z,74.57
2019-06-20T04:35:28.329Z,74.87
2019-06-20T04:36:04.390Z,74.55
2019-06-20T04:36:41.026Z,74.41
2019-06-20T04:37:17.650Z,74.49
2019-06-20T04:37:53.711Z,74.33
2019-06-20T04:38:30.384Z,74.32
2019-06-20T04:39:18.788Z,74.28
2019-06-20T04:39:45.739Z,74.30
2019-06-20T04:40:23.808Z,73.91
2019-06-20T04:41:00.489Z,73.63
2019-06-20T04:41:36.654Z,73.68
2019-06-20T04:42:13.275Z,73.57
2019-06-20T04:42:50.611Z,73.83
2019-06-20T04:43:27.411Z,73.80
2019-06-20T04:44:04.071Z,73.79
2019-06-20T04:44:40.813Z,73.62
2019-06-20T04:45:35.591Z,73.67
2019-06-20T04:46:16.785Z,73.92
2019-06-20T04:46:59.004Z,74.39
2019-06-20T04:47:35.389Z,74.29
2019-06-20T04:48:12.709Z,73.97
2019-06-20T04:48:49.680Z,73.60
2019-06-20T04:49:26.401Z,73.40
2019-06-20T04:50:03.595Z,73.50
2019-06-20T04:50:40.347Z,73.57
2019-06-20T04:51:16.673Z,72.92
2019-06-20T04:51:53.662Z,72.84
2019-06-20T04:52:30.256Z,72.99
2019-06-20T04:53:06.327Z,72.94
2019-06-20T04:53:42.961Z,72.65
2019-06-20T04:54:19.754Z,72.84
2019-06-20T04:54:55.901Z,73.12
2019-06-20T04:55:32.984Z,73.03
2019-06-20T04:56:09.599Z,72.56
2019-06-20T04:56:45.623Z,72.36
2019-06-20T04:57:22.248Z,72.89
2019-06-20T04:57:59.250Z,73.00
2019-06-20T04:58:35.351Z,73.02
2019-06-20T04:59:12.393Z,73.18
2019-06-20T04:59:51.485Z,73.03
2019-06-20T05:00:28.077Z,73.28
2019-06-20T05:01:04.726Z,73.01
2019-06-20T05:01:41.774Z,72.95
2019-06-20T05:02:19.757Z,72.92
2019-06-20T05:02:56.420Z,72.79
2019-06-20T05:03:33.155Z,72.51
2019-06-20T05:04:10.094Z,71.87
2019-06-20T05:04:46.812Z,72.15
2019-06-20T05:05:23.638Z,72.53
2019-06-20T05:06:00.984Z,72.33
2019-06-20T05:06:37.077Z,72.30
2019-06-20T05:07:19.932Z,72.12
2019-06-20T05:07:57.075Z,72.31
2019-06-20T05:08:33.431Z,72.71
2019-06-20T05:09:10.109Z,72.77
2019-06-20T05:09:46.765Z,72.32
2019-06-20T05:10:22.834Z,72.20
2019-06-20T05:10:59.778Z,72.11
2019-06-20T05:11:36.762Z,72.38
2019-06-20T05:12:12.788Z,72.62
2019-06-20T05:12:49.451Z,72.37
2019-06-20T05:13:26.094Z,72.21
2019-06-20T05:14:02.791Z,72.80
2019-06-20T05:14:40.004Z,72.97
2019-06-20T05:15:16.737Z,73.17
2019-06-20T05:15:53.459Z,72.86
2019-06-20T05:16:30.322Z,72.44
2019-06-20T05:17:07.404Z,72.26
2019-06-20T05:17:43.525Z,72.31
2019-06-20T05:18:20.448Z,72.14
2019-06-20T05:18:57.428Z,71.96
2019-06-20T05:19:33.496Z,72.14
2019-06-20T05:20:10.432Z,71.96
2019-06-20T05:20:47.459Z,71.81
2019-06-20T05:21:24.064Z,71.65
2019-06-20T05:22:00.747Z,71.66
2019-06-20T05:22:38.120Z,71.50
2019-06-20T05:23:14.552Z,71.11
2019-06-20T05:23:51.857Z,71.00
2019-06-20T05:24:28.482Z,71.09
2019-06-20T05:25:04.688Z,71.42
2019-06-20T05:25:41.329Z,71.52
2019-06-20T05:26:18.296Z,71.70
2019-06-20T05:26:54.739Z,71.49
2019-06-20T05:27:31.752Z,71.30
2019-06-20T05:28:08.389Z,71.26
2019-06-20T05:28:44.424Z,71.90
2019-06-20T05:29:21.041Z,72.05
2019-06-20T05:29:57.768Z,71.25
2019-06-20T05:30:34.185Z,71.19
2019-06-20T05:31:10.959Z,71.11
2019-06-20T05:31:47.674Z,70.83
2019-06-20T05:32:24.001Z,70.87
2019-06-20T05:33:00.818Z,71.06
2019-06-20T05:33:37.835Z,70.92
2019-06-20T05:34:13.857Z,70.83
2019-06-20T05:34:50.548Z,70.57
2019-06-20T05:35:27.257Z,71.17
2019-06-20T05:36:03.367Z,71.30
2019-06-20T05:36:40.041Z,71.16
2019-06-20T05:37:16.667Z,70.65
2019-06-20T05:37:53.019Z,70.32
2019-06-20T05:38:29.707Z,70.29
2019-06-20T05:39:07.545Z,70.21
2019-06-20T05:39:43.571Z,70.58
2019-06-20T05:40:20.425Z,70.34
2019-06-20T05:40:57.663Z,70.50
2019-06-20T05:41:34.343Z,69.76
2019-06-20T05:42:11.367Z,69.32
2019-06-20T05:42:48.006Z,69.48
2019-06-20T05:43:24.442Z,69.66
2019-06-20T05:44:01.106Z,69.51
2019-06-20T05:44:37.719Z,69.86
2019-06-20T05:45:14.978Z,70.17
2019-06-20T05:46:05.472Z,69.81
2019-06-20T05:46:30.327Z,69.78
2019-06-20T05:47:12.431Z,70.35
2019-06-20T05:47:45.471Z,70.37
2019-06-20T05:48:22.081Z,70.10
2019-06-20T05:48:58.512Z,69.47
2019-06-20T05:49:35.767Z,68.78
2019-06-20T05:50:13.395Z,68.97
2019-06-20T05:50:49.708Z,68.64
2019-06-20T05:51:26.453Z,69.03
2019-06-20T05:52:03.733Z,68.88
2019-06-20T05:52:39.773Z,69.16
2019-06-20T05:53:16.393Z,69.10
2019-06-20T05:53:53.747Z,69.48
2019-06-20T05:54:30.183Z,68.92
2019-06-20T05:55:07.564Z,68.53
2019-06-20T05:55:44.467Z,68.51
2019-06-20T05:56:20.852Z,68.21
2019-06-20T05:56:57.735Z,68.40
2019-06-20T05:57:34.719Z,68.35
2019-06-20T05:58:10.779Z,68.04
2019-06-20T05:58:47.876Z,68.64
2019-06-20T05:59:25.721Z,69.24
2019-06-20T06:00:01.924Z,69.75
2019-06-20T06:00:38.869Z,69.85
2019-06-20T06:01:15.598Z,70.12
2019-06-20T06:01:55.377Z,70.29
2019-06-20T06:02:30.828Z,70.12
2019-06-20T06:03:07.809Z,70.39
2019-06-20T06:03:44.264Z,70.08
2019-06-20T06:04:21.250Z,69.74
2019-06-20T06:04:58.593Z,69.79
2019-06-20T06:05:35.042Z,70.25
2019-06-20T06:06:12.528Z,70.28
2019-06-20T06:06:49.186Z,70.41
2019-06-20T06:07:25.637Z,70.41
2019-06-20T06:08:02.295Z,70.54
2019-06-20T06:08:39.144Z,70.00
2019-06-20T06:09:15.960Z,69.84
2019-06-20T06:09:52.568Z,69.48
2019-06-20T06:10:29.751Z,69.50
2019-06-20T06:11:05.949Z,69.56
2019-06-20T06:11:42.595Z,70.00
2019-06-20T06:12:19.892Z,69.17
2019-06-20T06:12:56.514Z,68.75
2019-06-20T06:13:33.202Z,68.45
2019-06-20T06:14:09.800Z,68.64
2019-06-20T06:14:45.850Z,68.84
2019-06-20T06:15:22.499Z,69.32
2019-06-20T06:16:00.259Z,68.68
2019-06-20T06:16:36.721Z,68.35
2019-06-20T06:17:13.337Z,69.21
2019-06-20T06:17:49.962Z,69.92
2019-06-20T06:18:26.084Z,69.57
2019-06-20T06:19:03.278Z,69.46
2019-06-20T06:19:40.223Z,69.85
2019-06-20T06:20:16.703Z,69.90
2019-06-20T06:20:53.330Z,69.82
2019-06-20T06:21:30.002Z,69.47
2019-06-20T06:22:06.065Z,68.91
2019-06-20T06:22:44.728Z,68.32
2019-06-20T06:23:21.190Z,69.23
2019-06-20T06:23:57.407Z,69.03
2019-06-20T06:24:34.066Z,68.35
2019-06-20T06:25:11.001Z,68.96
2019-06-20T06:25:47.432Z,68.34
2019-06-20T06:26:24.076Z,68.35
2019-06-20T06:27:00.789Z,68.01
2019-06-20T06:27:37.193Z,68.04
2019-06-20T06:28:13.846Z,68.28
2019-06-20T06:28:50.548Z,67.74
2019-06-20T06:29:26.922Z,67.78
2019-06-20T06:30:04.096Z,67.28
2019-06-20T06:30:40.735Z,67.41
2019-06-20T06:31:16.858Z,68.15
2019-06-20T06:31:53.500Z,68.20
2019-06-20T06:32:39.604Z,67.64
2019-06-20T06:33:09.793Z,67.81
2019-06-20T06:33:46.463Z,68.31
2019-06-20T06:34:23.127Z,68.74
2019-06-20T06:34:59.674Z,68.61
2019-06-20T06:35:36.638Z,68.62
2019-06-20T06:36:13.251Z,68.00
2019-06-20T06:36:49.299Z,67.87
2019-06-20T06:37:27.053Z,67.48
2019-06-20T06:38:03.809Z,67.57
2019-06-20T06:38:39.949Z,68.08
2019-06-20T06:39:16.667Z,67.78
2019-06-20T06:39:54.093Z,68.12
2019-06-20T06:40:30.271Z,68.65
2019-06-20T06:41:07.208Z,68.10
2019-06-20T06:41:44.507Z,67.54
2019-06-20T06:42:21.269Z,66.86
2019-06-20T06:42:58.045Z,66.21
2019-06-20T06:43:34.699Z,66.07
2019-06-20T06:44:10.707Z,67.00
2019-06-20T06:44:47.331Z,67.01
2019-06-20T06:45:24.129Z,66.91
2019-06-20T06:46:00.299Z,66.98
2019-06-20T06:46:44.994Z,67.45
2019-06-20T06:47:15.231Z,67.09
2019-06-20T06:47:51.222Z,66.01
2019-06-20T06:48:28.193Z,66.45
2019-06-20T06:49:05.441Z,66.40
2019-06-20T06:49:41.507Z,66.34
2019-06-20T06:50:18.162Z,66.93
2019-06-20T06:50:55.411Z,67.82
2019-06-20T06:51:31.542Z,67.66
2019-06-20T06:52:08.159Z,66.97
2019-06-20T06:52:45.436Z,66.56
2019-06-20T06:53:21.468Z,66.11
2019-06-20T06:53:58.469Z,65.43
2019-06-20T06:54:35.556Z,65.23
2019-06-20T06:55:13.215Z,64.97
2019-06-20T06:55:50.204Z,65.72
2019-06-20T06:56:27.525Z,66.13
2019-06-20T06:57:03.629Z,65.81
2019-06-20T06:57:40.223Z,66.33
2019-06-20T06:58:16.921Z,66.01
2019-06-20T06:58:52.993Z,66.00
2019-06-20T06:59:29.787Z,65.39
2019-06-20T07:00:08.822Z,64.65
2019-06-20T07:00:44.889Z,65.15
2019-06-20T07:01:22.157Z,65.53
2019-06-20T07:01:58.785Z,65.11
2019-06-20T07:02:34.838Z,65.87
2019-06-20T07:03:11.458Z,65.58
2019-06-20T07:03:48.523Z,64.80
2019-06-20T07:04:24.800Z,65.77
2019-06-20T07:05:01.701Z,65.30
2019-06-20T07:05:38.505Z,66.15
2019-06-20T07:06:14.553Z,66.18
2019-06-20T07:06:51.191Z,65.94
2019-06-20T07:07:27.845Z,65.54
2019-06-20T07:08:04.214Z,65.69
2019-06-20T07:08:41.162Z,65.82
2019-06-20T07:09:17.774Z,66.01
2019-06-20T07:09:53.803Z,65.63
2019-06-20T07:10:30.904Z,66.09
2019-06-20T07:11:07.907Z,65.38
2019-06-20T07:11:43.932Z,65.02
2019-06-20T07:12:20.546Z,64.20
2019-06-20T07:12:57.234Z,63.96
2019-06-20T07:13:33.313Z,63.81
2019-06-20T07:14:09.945Z,64.48
2019-06-20T07:14:46.570Z,64.64
2019-06-20T07:15:23.010Z,64.94
2019-06-20T07:15:59.740Z,65.40
2019-06-20T07:16:36.340Z,65.71
2019-06-20T07:17:12.973Z,65.79
2019-06-20T07:17:49.933Z,65.78
2019-06-20T07:18:26.967Z,65.68
2019-06-20T07:19:03.139Z,65.75
2019-06-20T07:19:40.018Z,66.22
2019-06-20T07:20:17.053Z,66.56
2019-06-20T07:20:53.118Z,66.27
2019-06-20T07:21:29.803Z,66.59
2019-06-20T07:22:06.489Z,66.20
2019-06-20T07:22:42.819Z,65.77
2019-06-20T07:23:19.440Z,66.61
2019-06-20T07:23:56.144Z,65.83
2019-06-20T07:24:32.912Z,65.22
2019-06-20T07:25:09.965Z,65.13
2019-06-20T07:25:46.851Z,64.84
2019-06-20T07:26:23.209Z,65.15
2019-06-20T07:26:59.907Z,65.36
2019-06-20T07:27:36.805Z,64.88
2019-06-20T07:28:12.858Z,64.95
2019-06-20T07:28:51.564Z,65.35
2019-06-20T07:29:28.294Z,65.93
2019-06-20T07:30:05.648Z,65.47
2019-06-20T07:30:42.272Z,65.01
2019-06-20T07:31:19.282Z,64.89
2019-06-20T07:31:55.476Z,64.51
2019-06-20T07:32:32.129Z,64.12
2019-06-20T07:33:08.765Z,63.89
2019-06-20T07:33:45.105Z,64.12
2019-06-20T07:34:21.838Z,64.07
2019-06-20T07:34:58.680Z,64.50
2019-06-20T07:35:35.417Z,64.47
2019-06-20T07:36:12.092Z,64.30
2019-06-20T07:36:48.708Z,64.40
2019-06-20T07:37:25.070Z,64.11
2019-06-20T07:38:02.151Z,63.90
2019-06-20T07:38:38.842Z,63.77
2019-06-20T07:39:14.876Z,64.42
2019-06-20T07:39:51.882Z,64.33
2019-06-20T07:40:28.756Z,64.32
2019-06-20T07:41:05.230Z,64.65
2019-06-20T07:41:41.871Z,64.07
2019-06-20T07:42:18.639Z,64.42
2019-06-20T07:42:54.979Z,64.37
2019-06-20T07:43:31.633Z,63.99
2019-06-20T07:44:08.638Z,63.68
2019-06-20T07:44:44.968Z,63.37
2019-06-20T07:45:27.614Z,62.61
2019-06-20T07:46:04.988Z,62.58
2019-06-20T07:46:41.039Z,62.28
2019-06-20T07:47:18.242Z,62.22
2019-06-20T07:47:54.986Z,62.30
2019-06-20T07:48:31.129Z,62.16
2019-06-20T07:49:08.548Z,62.57
2019-06-20T07:49:45.200Z,63.04
2019-06-20T07:50:21.777Z,63.40
2019-06-20T07:50:58.740Z,63.33
2019-06-20T07:51:35.400Z,63.07
2019-06-20T07:52:11.989Z,63.77
2019-06-20T07:53:01.423Z,63.95
2019-06-20T07:53:27.080Z,63.56
2019-06-20T07:54:03.595Z,63.03